Time;durP1;ratioP1;P1;durP2;ratioP2;P2;SDS_P1;SDS_P2;PMS_P1;PMS_P2;Temp;Humidity;BMP_temperature;BMP_pressure;BME280_temperature;BME280_humidity;BME280_pressure;Samples;Min_cycle;Max_cycle;Signal;HPM_P1;HPM_P2
2021/09/06 00:01:39;;;;;;;;;;;;;;;;;;5053645;28;19959;-80
2021/09/06 00:04:04;;;;;;;;;;;;;;;;;;5070184;28;19912;-80
2021/09/06 00:06:30;;;;;;;;;;;;;;;;;;5069823;28;20417;-80
2021/09/06 00:08:55;;;;;;;;;;;;;;;;;;5053259;28;19917;-79
2021/09/06 00:11:20;;;;;;;;;;;;;;;;;;5053525;28;19951;-79
2021/09/06 00:13:46;;;;;;;;;;;;;;;;;;5053306;28;19909;-80
2021/09/06 00:16:11;;;;;;;;;;;;;;;;;;5053259;28;19990;-79
2021/09/06 00:18:37;;;;;;;;;;;;;;;;;;5069543;28;19913;-80
2021/09/06 00:21:03;;;;;;;;;;;;;;;;;;5053411;28;20382;-80
2021/09/06 00:23:28;;;;;;;;;;;;;;;;;;5053082;28;19912;-80
2021/09/06 00:25:54;;;;;;;;;;;;;;;;;;5053105;28;19908;-80
2021/09/06 00:28:19;;;;;;;;;;;;;;;;;;5052975;28;19944;-80
2021/09/06 00:30:44;;;;;;;;;;;;;;;;;;5052692;28;19914;-79
2021/09/06 00:33:10;;;;;;;;;;;;;;;;;;5061494;28;20301;-79
2021/09/06 00:35:35;;;;;;;;;;;;;;;;;;5052725;28;19917;-80
2021/09/06 00:38:01;;;;;;;;;;;;;;;;;;5052857;28;19963;-79
2021/09/06 00:40:26;;;;;;;;;;;;;;;;;;5069625;28;19916;-80
2021/09/06 00:42:51;;;;;;;;;;;;;;;;;;5069988;28;19912;-80
2021/09/06 00:45:17;;;;;;;;;;;;;;;;;;5069521;28;20401;-79
2021/09/06 00:47:42;;;;;;;;;;;;;;;;;;5052347;28;19908;-80
2021/09/06 00:50:09;;;;;;;;;;;;;;;;;;5069307;28;19912;-80
2021/09/06 00:52:35;;;;;;;;;;;;;;;;;;5069340;28;19918;-80
2021/09/06 00:55:04;;;;;;;;;;;;;;;;;;5069357;28;20323;-81
2021/09/06 00:57:30;;;;;;;;;;;;;;;;;;5069300;28;19909;-80
2021/09/06 00:59:55;;;;;;;;;;;;;;;;;;5069077;28;19931;-80
2021/09/06 01:02:20;;;;;;;;;;;;;;;;;;5068344;28;19912;-80
2021/09/06 01:04:46;;;;;;;;;;;;;;;;;;5067353;28;19909;-80
2021/09/06 01:07:11;;;;;;;;;;;;;;;;;;5067923;28;20003;-80
2021/09/06 01:09:36;;;;;;;;;;;;;;;;;;5068695;28;19932;-79
2021/09/06 01:12:02;;;;;;;;;;;;;;;;;;5069180;28;20270;-79
2021/09/06 01:14:27;;;;;;;;;;;;;;;;;;5068903;28;19912;-79
2021/09/06 01:16:53;;;;;;;;;;;;;;;;;;5068380;28;19908;-80
2021/09/06 01:19:18;;;;;;;;;;;;;;;;;;5052063;28;19912;-80
2021/09/06 01:21:43;;;;;;;;;;;;;;;;;;5068885;28;19978;-80
2021/09/06 01:24:08;;;;;;;;;;;;;;;;;;5051992;28;19909;-80
2021/09/06 01:26:34;;;;;;;;;;;;;;;;;;5068840;28;20004;-80
2021/09/06 01:28:59;;;;;;;;;;;;;;;;;;5068674;28;19919;-79
2021/09/06 01:31:25;;;;;;;;;;;;;;;;;;5051117;28;20366;-79
2021/09/06 01:33:51;;;;;;;;;;;;;;;;;;5071695;28;19915;-80
2021/09/06 01:36:16;;;;;;;;;;;;;;;;;;5054757;28;19916;-80
2021/09/06 01:38:41;;;;;;;;;;;;;;;;;;5054732;28;19923;-80
2021/09/06 01:41:06;;;;;;;;;;;;;;;;;;5054096;28;19912;-80
2021/09/06 01:43:32;;;;;;;;;;;;;;;;;;5054820;28;20370;-80
2021/09/06 01:45:57;;;;;;;;;;;;;;;;;;5071279;28;19919;-80
2021/09/06 01:48:22;;;;;;;;;;;;;;;;;;5071437;28;19908;-80
2021/09/06 01:50:48;;;;;;;;;;;;;;;;;;5054856;28;19912;-80
2021/09/06 01:53:13;;;;;;;;;;;;;;;;;;5071484;28;20002;-80
2021/09/06 01:55:38;;;;;;;;;;;;;;;;;;5054867;28;19908;-80
2021/09/06 01:58:03;;;;;;;;;;;;;;;;;;5071350;28;19909;-80
2021/09/06 02:00:29;;;;;;;;;;;;;;;;;;5053907;28;19915;-80
2021/09/06 02:02:54;;;;;;;;;;;;;;;;;;5038037;28;19912;-79
2021/09/06 02:05:19;;;;;;;;;;;;;;;;;;5071563;28;19915;-80
2021/09/06 02:07:44;;;;;;;;;;;;;;;;;;5054206;28;19912;-80
2021/09/06 02:10:10;;;;;;;;;;;;;;;;;;5054536;28;19913;-80
2021/09/06 02:12:35;;;;;;;;;;;;;;;;;;5054756;28;19958;-79
2021/09/06 02:15:01;;;;;;;;;;;;;;;;;;5054239;28;19909;-80
2021/09/06 02:17:26;;;;;;;;;;;;;;;;;;5071098;28;20411;-80
2021/09/06 02:19:52;;;;;;;;;;;;;;;;;;5037923;28;19918;-80
2021/09/06 02:22:17;;;;;;;;;;;;;;;;;;5054410;28;19999;-80
2021/09/06 02:24:42;;;;;;;;;;;;;;;;;;5037841;28;19908;-80
2021/09/06 02:27:08;;;;;;;;;;;;;;;;;;5071134;28;19919;-80
2021/09/06 02:29:33;;;;;;;;;;;;;;;;;;5053724;28;19938;-79
2021/09/06 02:31:58;;;;;;;;;;;;;;;;;;5069823;28;19912;-80
2021/09/06 02:34:24;;;;;;;;;;;;;;;;;;5054467;28;19915;-80
2021/09/06 02:36:49;;;;;;;;;;;;;;;;;;5070662;28;19912;-80
2021/09/06 02:39:14;;;;;;;;;;;;;;;;;;5054620;28;20079;-80
2021/09/06 02:41:39;;;;;;;;;;;;;;;;;;5054440;28;19998;-80
2021/09/06 02:44:05;;;;;;;;;;;;;;;;;;5071640;28;20362;-80
2021/09/06 02:46:30;;;;;;;;;;;;;;;;;;5070723;28;19954;-80
2021/09/06 02:48:55;;;;;;;;;;;;;;;;;;5071834;28;20374;-80
2021/09/06 02:51:20;;;;;;;;;;;;;;;;;;5070695;28;19912;-80
2021/09/06 02:53:46;;;;;;;;;;;;;;;;;;5053905;28;19908;-80
2021/09/06 02:56:11;;;;;;;;;;;;;;;;;;5055200;28;19916;-80
2021/09/06 02:58:36;;;;;;;;;;;;;;;;;;5058137;28;19913;-80
2021/09/06 03:01:02;;;;;;;;;;;;;;;;;;5057641;28;20347;-80
2021/09/06 03:03:27;;;;;;;;;;;;;;;;;;5074715;28;19917;-80
2021/09/06 03:05:52;;;;;;;;;;;;;;;;;;5058220;28;19991;-80
2021/09/06 03:08:18;;;;;;;;;;;;;;;;;;5074350;28;20010;-80
2021/09/06 03:10:43;;;;;;;;;;;;;;;;;;5041311;28;19956;-80
2021/09/06 03:13:08;;;;;;;;;;;;;;;;;;5074257;28;19908;-80
2021/09/06 03:15:34;;;;;;;;;;;;;;;;;;5057382;28;19915;-80
2021/09/06 03:17:59;;;;;;;;;;;;;;;;;;5074279;28;19935;-79
2021/09/06 03:20:24;;;;;;;;;;;;;;;;;;5074301;28;19908;-80
2021/09/06 03:22:49;;;;;;;;;;;;;;;;;;5057387;28;19952;-79
2021/09/06 03:25:15;;;;;;;;;;;;;;;;;;5075621;28;20377;-80
2021/09/06 03:27:40;;;;;;;;;;;;;;;;;;5040723;28;19962;-80
2021/09/06 03:30:06;;;;;;;;;;;;;;;;;;5057027;28;19915;-80
2021/09/06 03:32:31;;;;;;;;;;;;;;;;;;5057576;28;19915;-80
2021/09/06 03:34:57;;;;;;;;;;;;;;;;;;5074270;28;19912;-80
2021/09/06 03:37:22;;;;;;;;;;;;;;;;;;5073630;28;19912;-80
2021/09/06 03:39:47;;;;;;;;;;;;;;;;;;5074129;28;19923;-80
2021/09/06 03:42:13;;;;;;;;;;;;;;;;;;5040440;28;20376;-80
2021/09/06 03:44:38;;;;;;;;;;;;;;;;;;5057232;28;19919;-80
2021/09/06 03:47:03;;;;;;;;;;;;;;;;;;5040531;28;20013;-80
2021/09/06 03:49:28;;;;;;;;;;;;;;;;;;5073708;28;20381;-80
2021/09/06 03:51:53;;;;;;;;;;;;;;;;;;5075131;28;19953;-80
2021/09/06 03:54:19;;;;;;;;;;;;;;;;;;5073888;28;19908;-80
2021/09/06 03:56:44;;;;;;;;;;;;;;;;;;5073553;28;20362;-80
2021/09/06 03:59:09;;;;;;;;;;;;;;;;;;5056766;28;19916;-80
2021/09/06 04:01:35;;;;;;;;;;;;;;;;;;5056666;28;19916;-79
2021/09/06 04:04:00;;;;;;;;;;;;;;;;;;5057104;28;19908;-79
2021/09/06 04:06:25;;;;;;;;;;;;;;;;;;5056141;28;20007;-80
2021/09/06 04:08:50;;;;;;;;;;;;;;;;;;5073145;28;19916;-79
2021/09/06 04:11:16;;;;;;;;;;;;;;;;;;5073180;28;20008;-80
2021/09/06 04:13:42;;;;;;;;;;;;;;;;;;5073579;28;20409;-80
2021/09/06 04:16:08;;;;;;;;;;;;;;;;;;5073146;28;20281;-80
2021/09/06 04:18:34;;;;;;;;;;;;;;;;;;5056628;28;19908;-79
2021/09/06 04:21:00;;;;;;;;;;;;;;;;;;5073441;28;20355;-80
2021/09/06 04:23:25;;;;;;;;;;;;;;;;;;5039855;28;19915;-79
2021/09/06 04:25:50;;;;;;;;;;;;;;;;;;5072870;28;20315;-80
2021/09/06 04:28:16;;;;;;;;;;;;;;;;;;5056076;28;19915;-80
2021/09/06 04:30:41;;;;;;;;;;;;;;;;;;5056132;28;20393;-80
2021/09/06 04:33:06;;;;;;;;;;;;;;;;;;5056771;28;20339;-80
2021/09/06 04:35:31;;;;;;;;;;;;;;;;;;5056895;28;19912;-79
2021/09/06 04:37:57;;;;;;;;;;;;;;;;;;5072838;28;19916;-80
2021/09/06 04:40:22;;;;;;;;;;;;;;;;;;5072784;28;19966;-80
2021/09/06 04:42:47;;;;;;;;;;;;;;;;;;5072812;28;19937;-79
2021/09/06 04:45:13;;;;;;;;;;;;;;;;;;5056044;28;20003;-79
2021/09/06 04:47:38;;;;;;;;;;;;;;;;;;5056247;28;19912;-79
2021/09/06 04:50:03;;;;;;;;;;;;;;;;;;5072651;28;19993;-80
2021/09/06 04:52:28;;;;;;;;;;;;;;;;;;5055968;28;19958;-80
2021/09/06 04:54:54;;;;;;;;;;;;;;;;;;5072417;28;20434;-79
2021/09/06 04:57:19;;;;;;;;;;;;;;;;;;5072753;28;19909;-80
2021/09/06 04:59:44;;;;;;;;;;;;;;;;;;5072375;28;20308;-80
2021/09/06 05:02:10;;;;;;;;;;;;;;;;;;5073497;28;19908;-80
2021/09/06 05:04:35;;;;;;;;;;;;;;;;;;5055669;28;19908;-80
2021/09/06 05:07:00;;;;;;;;;;;;;;;;;;5055286;28;20364;-80
2021/09/06 05:09:25;;;;;;;;;;;;;;;;;;5073224;28;19919;-80
2021/09/06 05:11:51;;;;;;;;;;;;;;;;;;5072377;28;19958;-80
2021/09/06 05:14:16;;;;;;;;;;;;;;;;;;5055441;28;19963;-80
2021/09/06 05:16:42;;;;;;;;;;;;;;;;;;5055569;28;19916;-80
2021/09/06 05:19:07;;;;;;;;;;;;;;;;;;5054785;28;20256;-79
2021/09/06 05:21:32;;;;;;;;;;;;;;;;;;5054362;28;19986;-80
2021/09/06 05:23:58;;;;;;;;;;;;;;;;;;5052348;28;19916;-80
2021/09/06 05:26:24;;;;;;;;;;;;;;;;;;5048376;28;20278;-80
2021/09/06 05:28:49;;;;;;;;;;;;;;;;;;5035011;28;20320;-81
2021/09/06 05:31:14;;;;;;;;;;;;;;;;;;5051541;28;19908;-80
2021/09/06 05:33:40;;;;;;;;;;;;;;;;;;5051517;28;19909;-81
2021/09/06 05:36:06;;;;;;;;;;;;;;;;;;5071402;28;19912;-81
2021/09/06 05:38:32;;;;;;;;;;;;;;;;;;5071513;28;19912;-80
2021/09/06 05:40:57;;;;;;;;;;;;;;;;;;5055093;28;19938;-81
2021/09/06 05:43:22;;;;;;;;;;;;;;;;;;5072028;28;19908;-81
2021/09/06 05:45:47;;;;;;;;;;;;;;;;;;5054091;28;19916;-80
2021/09/06 05:48:13;;;;;;;;;;;;;;;;;;5053586;28;19912;-80
2021/09/06 05:50:38;;;;;;;;;;;;;;;;;;5066374;28;19917;-80
2021/09/06 05:53:03;;;;;;;;;;;;;;;;;;5042961;28;20302;-80
2021/09/06 05:55:28;;;;;;;;;;;;;;;;;;5049986;28;19923;-80
2021/09/06 05:57:54;;;;;;;;;;;;;;;;;;5071587;28;19919;-80
2021/09/06 06:00:19;;;;;;;;;;;;;;;;;;5050819;28;20329;-80
2021/09/06 06:02:45;;;;;;;;;;;;;;;;;;5070495;28;19920;-79
2021/09/06 06:05:11;;;;;;;;;;;;;;;;;;5072220;28;19908;-80
2021/09/06 06:07:36;;;;;;;;;;;;;;;;;;5070309;28;19920;-80
2021/09/06 06:10:02;;;;;;;;;;;;;;;;;;5071055;28;20378;-81
2021/09/06 06:12:28;;;;;;;;;;;;;;;;;;5071335;28;19916;-81
2021/09/06 06:14:55;;;;;;;;;;;;;;;;;;5070503;28;20275;-80
2021/09/06 06:17:20;;;;;;;;;;;;;;;;;;5071015;28;19969;-78
2021/09/06 06:19:46;;;;;;;;;;;;;;;;;;5049088;28;19916;-78
2021/09/06 06:22:11;;;;;;;;;;;;;;;;;;5068537;28;20277;-78
2021/09/06 06:24:36;;;;;;;;;;;;;;;;;;5054243;28;19912;-78
2021/09/06 06:27:02;;;;;;;;;;;;;;;;;;5070650;28;19916;-78
2021/09/06 06:29:27;;;;;;;;;;;;;;;;;;5069979;28;19962;-78
2021/09/06 06:31:52;;;;;;;;;;;;;;;;;;5070603;28;19943;-78
2021/09/06 06:34:18;;;;;;;;;;;;;;;;;;5070726;28;20370;-79
2021/09/06 06:36:43;;;;;;;;;;;;;;;;;;5070383;28;19912;-77
2021/09/06 06:39:08;;;;;;;;;;;;;;;;;;5072224;28;19919;-78
2021/09/06 06:41:33;;;;;;;;;;;;;;;;;;5070941;28;19930;-78
2021/09/06 06:43:59;;;;;;;;;;;;;;;;;;5054244;28;20423;-78
2021/09/06 06:46:25;;;;;;;;;;;;;;;;;;5053927;28;19915;-78
2021/09/06 06:48:50;;;;;;;;;;;;;;;;;;5070302;28;19915;-78
2021/09/06 06:51:15;;;;;;;;;;;;;;;;;;5071803;28;19908;-78
2021/09/06 06:53:41;;;;;;;;;;;;;;;;;;5054407;28;19939;-78
2021/09/06 06:56:06;;;;;;;;;;;;;;;;;;5071053;28;20301;-78
2021/09/06 06:58:31;;;;;;;;;;;;;;;;;;5053642;28;19965;-78
2021/09/06 07:00:57;;;;;;;;;;;;;;;;;;5070141;28;19931;-78
2021/09/06 07:03:22;;;;;;;;;;;;;;;;;;5053872;28;19912;-78
2021/09/06 07:05:47;;;;;;;;;;;;;;;;;;5070423;28;19969;-78
2021/09/06 07:08:12;;;;;;;;;;;;;;;;;;5053400;28;19966;-78
2021/09/06 07:10:38;;;;;;;;;;;;;;;;;;5070705;28;19912;-77
2021/09/06 07:13:03;;;;;;;;;;;;;;;;;;5070757;28;19948;-78
2021/09/06 07:15:32;;;;;;;;;;;;;;;;;;5069945;28;19939;-78
2021/09/06 07:17:58;;;;;;;;;;;;;;;;;;5070358;28;19919;-78
2021/09/06 07:20:23;;;;;;;;;;;;;;;;;;5051405;28;19912;-79
2021/09/06 07:22:49;;;;;;;;;;;;;;;;;;5033860;28;20450;-79
2021/09/06 07:25:14;;;;;;;;;;;;;;;;;;5050734;28;19916;-79
2021/09/06 07:27:40;;;;;;;;;;;;;;;;;;5057486;28;20014;-78
2021/09/06 07:30:05;;;;;;;;;;;;;;;;;;5069487;28;19916;-79
2021/09/06 07:32:31;;;;;;;;;;;;;;;;;;5047200;28;20022;-78
2021/09/06 07:34:56;;;;;;;;;;;;;;;;;;5054678;28;20053;-79
2021/09/06 07:37:21;;;;;;;;;;;;;;;;;;5069813;28;19948;-79
2021/09/06 07:39:47;;;;;;;;;;;;;;;;;;5086933;28;19917;-78
2021/09/06 07:42:12;;;;;;;;;;;;;;;;;;5070602;28;20328;-80
2021/09/06 07:44:37;;;;;;;;;;;;;;;;;;5057357;28;19915;-81
2021/09/06 07:47:03;;;;;;;;;;;;;;;;;;5056905;28;19908;-81
2021/09/06 07:49:29;;;;;;;;;;;;;;;;;;5073584;28;19922;-80
2021/09/06 07:51:54;;;;;;;;;;;;;;;;;;5073771;28;19999;-79
2021/09/06 07:54:20;;;;;;;;;;;;;;;;;;5074241;28;19908;-82
2021/09/06 07:56:47;;;;;;;;;;;;;;;;;;5071812;28;19912;-81
2021/09/06 07:59:12;;;;;;;;;;;;;;;;;;5071356;28;19918;-82
2021/09/06 08:01:39;;;;;;;;;;;;;;;;;;5067581;28;19917;-81
2021/09/06 08:04:04;;;;;;;;;;;;;;;;;;5071418;28;19912;-80
2021/09/06 08:06:30;;;;;;;;;;;;;;;;;;5074880;28;20328;-80
2021/09/06 08:08:55;;;;;;;;;;;;;;;;;;5054647;28;19982;-80
2021/09/06 08:11:20;;;;;;;;;;;;;;;;;;5036291;28;19963;-80
2021/09/06 08:13:46;;;;;;;;;;;;;;;;;;5062827;28;19919;-80
2021/09/06 08:16:11;;;;;;;;;;;;;;;;;;5072130;28;19935;-81
2021/09/06 08:18:36;;;;;;;;;;;;;;;;;;5072875;28;20372;-80
2021/09/06 08:21:01;;;;;;;;;;;;;;;;;;5070661;28;20418;-80
2021/09/06 08:23:30;;;;;;;;;;;;;;;;;;5056415;28;19913;-81
2021/09/06 08:25:55;;;;;;;;;;;;;;;;;;5076360;28;19919;-80
2021/09/06 08:28:20;;;;;;;;;;;;;;;;;;5040714;28;19908;-80
2021/09/06 08:30:45;;;;;;;;;;;;;;;;;;5044328;28;19920;-80
2021/09/06 08:33:11;;;;;;;;;;;;;;;;;;5049257;28;20407;-80
2021/09/06 08:35:36;;;;;;;;;;;;;;;;;;5072672;28;19943;-81
2021/09/06 08:38:01;;;;;;;;;;;;;;;;;;5055880;28;19916;-81
2021/09/06 08:40:27;;;;;;;;;;;;;;;;;;5072417;28;19920;-81
2021/09/06 08:42:52;;;;;;;;;;;;;;;;;;5072678;28;19919;-83
2021/09/06 08:45:17;;;;;;;;;;;;;;;;;;5072435;28;19970;-84
2021/09/06 08:47:43;;;;;;;;;;;;;;;;;;5055761;28;19916;-81
2021/09/06 08:50:09;;;;;;;;;;;;;;;;;;5055392;28;19916;-81
2021/09/06 08:52:34;;;;;;;;;;;;;;;;;;5072332;28;20290;-82
2021/09/06 08:54:59;;;;;;;;;;;;;;;;;;5071759;28;19919;-84
2021/09/06 08:57:24;;;;;;;;;;;;;;;;;;5055376;28;19916;-83
2021/09/06 08:59:56;;;;;;;;;;;;;;;;;;5071483;28;19916;-83
2021/09/06 09:02:22;;;;;;;;;;;;;;;;;;5055849;28;19908;-83
2021/09/06 09:04:56;;;;;;;;;;;;;;;;;;5055409;28;19919;-83
2021/09/06 09:07:24;;;;;;;;;;;;;;;;;;5053508;28;19935;-82
2021/09/06 09:09:49;;;;;;;;;;;;;;;;;;5028821;28;19924;-82
2021/09/06 09:12:20;;;;;;;;;;;;;;;;;;5066071;28;19917;-82
2021/09/06 09:14:49;;;;;;;;;;;;;;;;;;5058754;28;19908;-82
2021/09/06 09:17:15;;;;;;;;;;;;;;;;;;5054511;28;19982;-82
2021/09/06 09:19:40;;;;;;;;;;;;;;;;;;5054682;28;20000;-81
2021/09/06 09:22:06;;;;;;;;;;;;;;;;;;5054071;28;19912;-80
2021/09/06 09:24:32;;;;;;;;;;;;;;;;;;5068633;28;19914;-81
2021/09/06 09:26:58;;;;;;;;;;;;;;;;;;5054250;28;19916;-80
2021/09/06 09:29:23;;;;;;;;;;;;;;;;;;5071048;28;19916;-81
2021/09/06 09:31:49;;;;;;;;;;;;;;;;;;5071117;28;19920;-81
2021/09/06 09:34:14;;;;;;;;;;;;;;;;;;5071958;28;20239;-81
2021/09/06 09:36:41;;;;;;;;;;;;;;;;;;5070961;28;20289;-81
2021/09/06 09:39:13;;;;;;;;;;;;;;;;;;5071395;28;19951;-81
2021/09/06 09:41:38;;;;;;;;;;;;;;;;;;5054373;28;20083;-81
2021/09/06 09:44:27;;;;;;;;;;;;;;;;;;5054098;28;20007;-82
2021/09/06 09:46:55;;;;;;;;;;;;;;;;;;5051252;28;20475;-81
2021/09/06 09:49:23;;;;;;;;;;;;;;;;;;5051396;28;19948;-81
2021/09/06 09:51:49;;;;;;;;;;;;;;;;;;5054445;28;19958;-82
2021/09/06 09:54:14;;;;;;;;;;;;;;;;;;5071205;28;20263;-82
2021/09/06 09:56:41;;;;;;;;;;;;;;;;;;5054440;28;19947;-82
2021/09/06 09:59:06;;;;;;;;;;;;;;;;;;5054285;28;20445;-81
2021/09/06 10:01:33;;;;;;;;;;;;;;;;;;5070773;28;20035;-82
2021/09/06 10:03:59;;;;;;;;;;;;;;;;;;5037839;28;19912;-82
2021/09/06 10:06:24;;;;;;;;;;;;;;;;;;5053681;28;19912;-82
2021/09/06 10:08:50;;;;;;;;;;;;;;;;;;5054295;28;20441;-83
2021/09/06 10:11:15;;;;;;;;;;;;;;;;;;5036934;28;19919;-82
2021/09/06 10:13:43;;;;;;;;;;;;;;;;;;5070478;28;20011;-81
2021/09/06 10:16:08;;;;;;;;;;;;;;;;;;5053533;28;19916;-82
2021/09/06 10:18:36;;;;;;;;;;;;;;;;;;5070303;28;19912;-81
2021/09/06 10:21:08;;;;;;;;;;;;;;;;;;5069500;28;19994;-82
2021/09/06 10:23:40;;;;;;;;;;;;;;;;;;5053262;28;20290;-82
2021/09/06 10:26:12;;;;;;;;;;;;;;;;;;5070401;28;19919;-83
2021/09/06 10:28:37;;;;;;;;;;;;;;;;;;5070890;28;19991;-82
2021/09/06 10:31:02;;;;;;;;;;;;;;;;;;5052969;28;20011;-82
2021/09/06 10:33:29;;;;;;;;;;;;;;;;;;5070247;28;19916;-82
2021/09/06 10:36:04;;;;;;;;;;;;;;;;;;5070189;28;19912;-82
2021/09/06 10:38:42;;;;;;;;;;;;;;;;;;5053453;28;19916;-82
2021/09/06 10:41:07;;;;;;;;;;;;;;;;;;5071796;28;19912;-82
2021/09/06 10:43:40;;;;;;;;;;;;;;;;;;5048489;28;20300;-82
2021/09/06 10:46:05;;;;;;;;;;;;;;;;;;5033728;28;20007;-83
2021/09/06 10:48:31;;;;;;;;;;;;;;;;;;5034015;28;20020;-83
2021/09/06 10:50:57;;;;;;;;;;;;;;;;;;5033601;28;19976;-83
2021/09/06 10:53:23;;;;;;;;;;;;;;;;;;5034377;28;19920;-83
2021/09/06 10:55:49;;;;;;;;;;;;;;;;;;5040109;28;19912;-82
2021/09/06 10:58:14;;;;;;;;;;;;;;;;;;5053872;28;20046;-82
2021/09/06 11:00:40;;;;;;;;;;;;;;;;;;5052712;28;19909;-82
2021/09/06 11:03:06;;;;;;;;;;;;;;;;;;5070198;28;20347;-82
2021/09/06 11:05:31;;;;;;;;;;;;;;;;;;5069763;28;19916;-82
2021/09/06 11:08:03;;;;;;;;;;;;;;;;;;5069819;28;19916;-81
2021/09/06 11:10:29;;;;;;;;;;;;;;;;;;5069739;28;20007;-82
2021/09/06 11:12:56;;;;;;;;;;;;;;;;;;5070468;28;19920;-82
2021/09/06 11:15:24;;;;;;;;;;;;;;;;;;5053671;28;19915;-83
2021/09/06 11:17:56;;;;;;;;;;;;;;;;;;5063243;28;19978;-82
2021/09/06 11:20:21;;;;;;;;;;;;;;;;;;5062690;28;19952;-82
2021/09/06 11:22:46;;;;;;;;;;;;;;;;;;5059406;28;20360;-82
2021/09/06 11:25:12;;;;;;;;;;;;;;;;;;5071225;28;20457;-82
2021/09/06 11:27:37;;;;;;;;;;;;;;;;;;5057519;28;19916;-82
2021/09/06 11:30:03;;;;;;;;;;;;;;;;;;5065663;28;19912;-82
2021/09/06 11:32:28;;;;;;;;;;;;;;;;;;5057126;28;20394;-82
2021/09/06 11:35:02;;;;;;;;;;;;;;;;;;5056949;28;19994;-82
2021/09/06 11:37:27;;;;;;;;;;;;;;;;;;5056344;28;19919;-82
2021/09/06 11:39:54;;;;;;;;;;;;;;;;;;5056867;28;20290;-82
2021/09/06 11:42:19;;;;;;;;;;;;;;;;;;5073541;28;19919;-82
2021/09/06 11:44:46;;;;;;;;;;;;;;;;;;5056804;28;19912;-82
2021/09/06 11:47:11;;;;;;;;;;;;;;;;;;5072021;28;19919;-82
2021/09/06 11:49:36;;;;;;;;;;;;;;;;;;5055093;28;20337;-81
2021/09/06 11:52:05;;;;;;;;;;;;;;;;;;5055391;28;19916;-82
2021/09/06 11:54:39;;;;;;;;;;;;;;;;;;5073580;28;19951;-82
2021/09/06 11:57:04;;;;;;;;;;;;;;;;;;5055965;28;20087;-80
2021/09/06 11:59:29;;;;;;;;;;;;;;;;;;5069782;28;20439;-80
2021/09/06 12:01:55;;;;;;;;;;;;;;;;;;5075394;28;19908;-81
2021/09/06 12:04:20;;;;;;;;;;;;;;;;;;5069355;28;20266;-80
2021/09/06 12:06:45;;;;;;;;;;;;;;;;;;5054410;28;19912;-81
2021/09/06 12:09:11;;;;;;;;;;;;;;;;;;5073178;28;19959;-81
2021/09/06 12:11:37;;;;;;;;;;;;;;;;;;5057053;28;19935;-80
2021/09/06 12:14:03;;;;;;;;;;;;;;;;;;5075219;28;19997;-80
2021/09/06 12:16:29;;;;;;;;;;;;;;;;;;5073011;28;19919;-80
2021/09/06 12:18:54;;;;;;;;;;;;;;;;;;5071536;28;19977;-80
2021/09/06 12:21:21;;;;;;;;;;;;;;;;;;5066775;28;19919;-81
2021/09/06 12:23:50;;;;;;;;;;;;;;;;;;5077721;28;20382;-80
2021/09/06 12:26:15;;;;;;;;;;;;;;;;;;5073345;28;19934;-80
2021/09/06 12:28:57;;;;;;;;;;;;;;;;;;5072775;28;20344;-80
2021/09/06 12:31:22;;;;;;;;;;;;;;;;;;5053966;28;19920;-80
2021/09/06 12:33:48;;;;;;;;;;;;;;;;;;5061024;28;20429;-80
2021/09/06 12:36:13;;;;;;;;;;;;;;;;;;5055997;28;20400;-80
2021/09/06 12:38:38;;;;;;;;;;;;;;;;;;5072536;28;19920;-80
2021/09/06 12:41:04;;;;;;;;;;;;;;;;;;5089837;28;19912;-81
2021/09/06 12:43:29;;;;;;;;;;;;;;;;;;5087100;28;19936;-80
2021/09/06 12:45:54;;;;;;;;;;;;;;;;;;5056216;28;20366;-81
2021/09/06 12:48:20;;;;;;;;;;;;;;;;;;5056033;28;20007;-81
2021/09/06 12:50:45;;;;;;;;;;;;;;;;;;5089321;28;20366;-80
2021/09/06 12:53:11;;;;;;;;;;;;;;;;;;5056128;28;19908;-80
2021/09/06 12:55:36;;;;;;;;;;;;;;;;;;5072223;28;19909;-80
2021/09/06 12:58:01;;;;;;;;;;;;;;;;;;5038956;28;19908;-80
2021/09/06 13:00:27;;;;;;;;;;;;;;;;;;5038677;28;19950;-81
2021/09/06 13:02:52;;;;;;;;;;;;;;;;;;5072362;28;19919;-81
2021/09/06 13:05:17;;;;;;;;;;;;;;;;;;5056071;28;20362;-81
2021/09/06 13:07:43;;;;;;;;;;;;;;;;;;5054468;28;20009;-81
2021/09/06 13:10:09;;;;;;;;;;;;;;;;;;5071716;28;20388;-80
2021/09/06 13:12:34;;;;;;;;;;;;;;;;;;5067993;28;19916;-80
2021/09/06 13:15:01;;;;;;;;;;;;;;;;;;5080075;28;20362;-80
2021/09/06 13:17:27;;;;;;;;;;;;;;;;;;5056848;28;19935;-81
2021/09/06 13:19:52;;;;;;;;;;;;;;;;;;5052195;28;19912;-80
2021/09/06 13:22:21;;;;;;;;;;;;;;;;;;5054104;28;19931;-80
2021/09/06 13:24:47;;;;;;;;;;;;;;;;;;5071172;28;19948;-81
2021/09/06 13:27:12;;;;;;;;;;;;;;;;;;5070426;28;20455;-81
2021/09/06 13:29:37;;;;;;;;;;;;;;;;;;5063964;28;19916;-80
2021/09/06 13:32:02;;;;;;;;;;;;;;;;;;5060422;28;19981;-81
2021/09/06 13:34:28;;;;;;;;;;;;;;;;;;5050579;28;19927;-81
2021/09/06 13:36:53;;;;;;;;;;;;;;;;;;5052429;28;20007;-80
2021/09/06 13:39:18;;;;;;;;;;;;;;;;;;5071340;28;19920;-81
2021/09/06 13:41:44;;;;;;;;;;;;;;;;;;5054595;28;19908;-80
2021/09/06 13:44:09;;;;;;;;;;;;;;;;;;5069618;28;20251;-81
2021/09/06 13:46:34;;;;;;;;;;;;;;;;;;5070981;28;19912;-81
2021/09/06 13:49:00;;;;;;;;;;;;;;;;;;5051054;28;19920;-81
2021/09/06 13:51:25;;;;;;;;;;;;;;;;;;5034779;28;19909;-81
2021/09/06 13:53:50;;;;;;;;;;;;;;;;;;5067881;28;19958;-81
2021/09/06 13:56:15;;;;;;;;;;;;;;;;;;5033209;28;19912;-80
2021/09/06 13:58:41;;;;;;;;;;;;;;;;;;5066533;28;19912;-81
2021/09/06 14:01:06;;;;;;;;;;;;;;;;;;5023942;28;20301;-80
2021/09/06 14:03:32;;;;;;;;;;;;;;;;;;5070858;28;20336;-80
2021/09/06 14:05:57;;;;;;;;;;;;;;;;;;5070431;28;19916;-81
2021/09/06 14:08:23;;;;;;;;;;;;;;;;;;5070610;28;19921;-80
2021/09/06 14:10:48;;;;;;;;;;;;;;;;;;5068819;28;20018;-80
2021/09/06 14:13:13;;;;;;;;;;;;;;;;;;5065026;28;19908;-81
2021/09/06 14:15:38;;;;;;;;;;;;;;;;;;5041923;28;19922;-80
2021/09/06 14:18:04;;;;;;;;;;;;;;;;;;5049241;28;19935;-80
2021/09/06 14:20:29;;;;;;;;;;;;;;;;;;5043733;28;20278;-80
2021/09/06 14:22:54;;;;;;;;;;;;;;;;;;5041897;28;20401;-81
2021/09/06 14:25:20;;;;;;;;;;;;;;;;;;5029435;28;19912;-81
2021/09/06 14:27:45;;;;;;;;;;;;;;;;;;5051186;28;19909;-81
2021/09/06 14:30:11;;;;;;;;;;;;;;;;;;5057832;28;19990;-80
2021/09/06 14:32:36;;;;;;;;;;;;;;;;;;5070488;28;20382;-81
2021/09/06 14:35:01;;;;;;;;;;;;;;;;;;5070770;28;19950;-81
2021/09/06 14:37:27;;;;;;;;;;;;;;;;;;5051280;28;19963;-80
2021/09/06 14:39:52;;;;;;;;;;;;;;;;;;5067292;28;19916;-81
2021/09/06 14:42:18;;;;;;;;;;;;;;;;;;5051000;28;19913;-80
2021/09/06 14:44:43;;;;;;;;;;;;;;;;;;5067710;28;19947;-80
2021/09/06 14:47:08;;;;;;;;;;;;;;;;;;5049644;28;19913;-81
2021/09/06 14:49:34;;;;;;;;;;;;;;;;;;5073275;28;19916;-81
2021/09/06 14:52:00;;;;;;;;;;;;;;;;;;5076232;28;19923;-81
2021/09/06 14:54:25;;;;;;;;;;;;;;;;;;5066416;28;19917;-80
2021/09/06 14:56:50;;;;;;;;;;;;;;;;;;5042780;28;20374;-80
2021/09/06 14:59:16;;;;;;;;;;;;;;;;;;5074774;28;19909;-80
2021/09/06 15:01:41;;;;;;;;;;;;;;;;;;5072889;28;19991;-80
2021/09/06 15:04:06;;;;;;;;;;;;;;;;;;5074211;28;19908;-79
2021/09/06 15:06:31;;;;;;;;;;;;;;;;;;5073959;28;19913;-79
2021/09/06 15:08:57;;;;;;;;;;;;;;;;;;5074412;28;19924;-79
2021/09/06 15:11:23;;;;;;;;;;;;;;;;;;5057407;28;19919;-79
2021/09/06 15:13:48;;;;;;;;;;;;;;;;;;5057919;28;20370;-79
2021/09/06 15:16:14;;;;;;;;;;;;;;;;;;5074026;28;19908;-80
2021/09/06 15:18:39;;;;;;;;;;;;;;;;;;5074283;28;20362;-81
2021/09/06 15:21:04;;;;;;;;;;;;;;;;;;5075480;28;19962;-80
2021/09/06 15:23:30;;;;;;;;;;;;;;;;;;5056672;28;20000;-80
2021/09/06 15:25:55;;;;;;;;;;;;;;;;;;5071288;28;19974;-80
2021/09/06 15:28:20;;;;;;;;;;;;;;;;;;5073961;28;19913;-79
2021/09/06 15:31:04;;;;;;;;;;;;;;;;;;5063391;28;20412;-80
2021/09/06 15:33:30;;;;;;;;;;;;;;;;;;5055107;28;20377;-80
2021/09/06 15:35:55;;;;;;;;;;;;;;;;;;5070449;28;19916;-80
2021/09/06 15:38:24;;;;;;;;;;;;;;;;;;5037238;28;20389;-80
2021/09/06 15:40:53;;;;;;;;;;;;;;;;;;5037597;28;19909;-80
2021/09/06 15:43:18;;;;;;;;;;;;;;;;;;5037500;28;19913;-80
2021/09/06 15:45:43;;;;;;;;;;;;;;;;;;5042539;28;19914;-80
2021/09/06 15:48:09;;;;;;;;;;;;;;;;;;5082543;28;19912;-80
2021/09/06 15:50:34;;;;;;;;;;;;;;;;;;5090545;28;19909;-80
2021/09/06 15:52:59;;;;;;;;;;;;;;;;;;5069785;28;19912;-80
2021/09/06 15:55:25;;;;;;;;;;;;;;;;;;5081056;28;19912;-80
2021/09/06 15:57:50;;;;;;;;;;;;;;;;;;5077102;28;19915;-80
2021/09/06 16:00:15;;;;;;;;;;;;;;;;;;5093481;28;20285;-80
2021/09/06 16:02:41;;;;;;;;;;;;;;;;;;5090136;28;19912;-80
2021/09/06 16:05:06;;;;;;;;;;;;;;;;;;5073345;28;20384;-80
2021/09/06 16:07:31;;;;;;;;;;;;;;;;;;5048685;28;19919;-80
2021/09/06 16:09:57;;;;;;;;;;;;;;;;;;5056410;28;19916;-80
2021/09/06 16:12:22;;;;;;;;;;;;;;;;;;5073576;28;19966;-80
2021/09/06 16:14:52;;;;;;;;;;;;;;;;;;5072892;28;19912;-80
2021/09/06 16:17:17;;;;;;;;;;;;;;;;;;5073424;28;19914;-80
2021/09/06 16:19:43;;;;;;;;;;;;;;;;;;5073336;28;20273;-80
2021/09/06 16:22:09;;;;;;;;;;;;;;;;;;5073099;28;20345;-80
2021/09/06 16:24:35;;;;;;;;;;;;;;;;;;5073064;28;20389;-80
2021/09/06 16:27:00;;;;;;;;;;;;;;;;;;5072807;28;19908;-80
2021/09/06 16:29:25;;;;;;;;;;;;;;;;;;5079683;28;19959;-80
2021/09/06 16:31:51;;;;;;;;;;;;;;;;;;5055774;28;19943;-80
2021/09/06 16:34:16;;;;;;;;;;;;;;;;;;5048344;28;19908;-80
2021/09/06 16:36:41;;;;;;;;;;;;;;;;;;5035967;28;19917;-80